Airport Name : Cambridge

Other Name : Cambridge

ICAO : EGSC

IATA : CBG

FAA :

Latitude : 52.205

Longitude : 0.175

Country : United Kingdom

Local Date and Time : 04 Dec 2020 14:38

 

TAF (Terminal Aerodrome Forecast)

TAF EGSC 041403Z 0415/0419 21010KT 9999 BKN018 PROB40 TEMPO 0415/0416 7000 RA BKN010 PROB40 TEMPO 0415/0419 22015G25KT

 

METAR (METeorological Aerodrome Report)

EGSC 041350Z 22012KT 190V250 8000 RADZ FEW007 BKN012 04/03 Q0975

EGSC 041320Z 22010KT 9999 FEW007 BKN020 04/03 Q0975

EGSC 041250Z 22009KT 9999 FEW007 SCT015 BKN020 04/02 Q0975

EGSC 041220Z 23010KT 9999 FEW009 SCT015 BKN020 03/02 Q0975

EGSC 041150Z 23010KT 9999 FEW009 BKN030 03/02 Q0974

EGSC 041120Z 22009KT 9000 -RA SCT009 BKN020 03/02 Q0974 R23/690295

EGSC 041050Z 23009KT 9000 -RA FEW007 SCT015 BKN020 02/01 Q0974 R23/690295

To Charter a Jet Click here.